LVMEP SAME-SADF
Flight info
| Callsign | LVMEP |
|---|---|
| Flight time | N/A |
| Altitude | 25000 |
| Route | KAMUV1C KAMUV UT670 SNT DCT TRINI |
| Aircraft | BE60/L-SDFGRY/C |
Departure
| Time | N/A |
|---|---|
| Airport | Governor Francisco Gabrielli International Airport (SAME) |
Arrival
| Time | 2026-04-24 22:05 |
|---|---|
| Airport | San Fernando Airport (SADF) |
| Time | Latitude | Longitude | Altitude | Speed | Heading |
|---|---|---|---|---|---|
| 2026-04-24 21:05 | -33.60344 | -63.82443 | 25028 ft | 308 kts | 101° |
| 2026-04-24 21:05 | -33.60627 | -63.80629 | 25025 ft | 308 kts | 101° |
| 2026-04-24 21:05 | -33.61019 | -63.78110 | 25028 ft | 308 kts | 101° |
| 2026-04-24 21:06 | -33.61412 | -63.75581 | 25027 ft | 308 kts | 101° |
| 2026-04-24 21:06 | -33.61804 | -63.73056 | 25026 ft | 308 kts | 101° |
| 2026-04-24 21:06 | -33.62196 | -63.70527 | 25027 ft | 308 kts | 101° |
| 2026-04-24 21:06 | -33.62588 | -63.67997 | 25025 ft | 308 kts | 101° |
| 2026-04-24 21:07 | -33.62979 | -63.65470 | 25026 ft | 308 kts | 101° |
| 2026-04-24 21:07 | -33.63369 | -63.62947 | 25025 ft | 308 kts | 101° |
| 2026-04-24 21:07 | -33.63758 | -63.60420 | 25026 ft | 308 kts | 101° |
| 2026-04-24 21:07 | -33.64143 | -63.57921 | 25026 ft | 308 kts | 101° |
| 2026-04-24 21:08 | -33.64532 | -63.55394 | 25027 ft | 308 kts | 101° |
| 2026-04-24 21:08 | -33.64920 | -63.52867 | 25024 ft | 308 kts | 101° |
| 2026-04-24 21:08 | -33.65308 | -63.50336 | 25025 ft | 308 kts | 101° |
| 2026-04-24 21:08 | -33.65695 | -63.47809 | 25024 ft | 308 kts | 101° |
| 2026-04-24 21:09 | -33.66081 | -63.45281 | 25024 ft | 308 kts | 101° |
| 2026-04-24 21:09 | -33.66467 | -63.42755 | 25027 ft | 308 kts | 101° |
| 2026-04-24 21:09 | -33.66852 | -63.40230 | 25027 ft | 308 kts | 101° |
| 2026-04-24 21:09 | -33.67237 | -63.37701 | 25025 ft | 308 kts | 101° |
| 2026-04-24 21:10 | -33.67622 | -63.35169 | 25026 ft | 308 kts | 101° |
| 2026-04-24 21:10 | -33.68006 | -63.32642 | 25026 ft | 308 kts | 101° |
| 2026-04-24 21:10 | -33.68389 | -63.30112 | 25025 ft | 308 kts | 101° |
| 2026-04-24 21:10 | -33.68772 | -63.27585 | 25026 ft | 308 kts | 101° |
| 2026-04-24 21:11 | -33.69154 | -63.25056 | 25028 ft | 308 kts | 101° |
| 2026-04-24 21:11 | -33.69536 | -63.22528 | 25024 ft | 308 kts | 101° |
| 2026-04-24 21:11 | -33.69918 | -63.19991 | 25026 ft | 308 kts | 101° |
| 2026-04-24 21:11 | -33.70299 | -63.17460 | 25024 ft | 308 kts | 101° |
| 2026-04-24 21:12 | -33.70680 | -63.14929 | 25026 ft | 308 kts | 101° |
| 2026-04-24 21:12 | -33.71061 | -63.12393 | 25027 ft | 308 kts | 101° |
| 2026-04-24 21:12 | -33.71440 | -63.09863 | 25025 ft | 308 kts | 101° |
| 2026-04-24 21:12 | -33.71818 | -63.07334 | 25025 ft | 308 kts | 101° |
| 2026-04-24 21:13 | -33.72197 | -63.04800 | 25028 ft | 308 kts | 101° |
| 2026-04-24 21:13 | -33.72575 | -63.02268 | 25024 ft | 308 kts | 101° |
| 2026-04-24 21:13 | -33.72956 | -62.99736 | 25026 ft | 308 kts | 101° |
| 2026-04-24 21:13 | -33.73345 | -62.97241 | 25026 ft | 308 kts | 102° |
| 2026-04-24 21:14 | -33.73739 | -62.94713 | 25027 ft | 308 kts | 101° |
| 2026-04-24 21:14 | -33.74131 | -62.92151 | 25023 ft | 308 kts | 101° |
| 2026-04-24 21:14 | -33.74514 | -62.89648 | 25028 ft | 308 kts | 101° |
| 2026-04-24 21:14 | -33.74903 | -62.87110 | 25026 ft | 308 kts | 101° |
| 2026-04-24 21:15 | -33.75292 | -62.84574 | 25027 ft | 308 kts | 101° |
| 2026-04-24 21:15 | -33.75679 | -62.82042 | 25027 ft | 308 kts | 101° |
| 2026-04-24 21:15 | -33.76065 | -62.79510 | 25028 ft | 308 kts | 101° |
| 2026-04-24 21:15 | -33.76452 | -62.76970 | 25026 ft | 308 kts | 101° |
| 2026-04-24 21:16 | -33.76837 | -62.74437 | 25024 ft | 308 kts | 101° |
| 2026-04-24 21:16 | -33.77218 | -62.71933 | 25027 ft | 308 kts | 101° |
| 2026-04-24 21:16 | -33.77604 | -62.69392 | 25027 ft | 308 kts | 101° |
| 2026-04-24 21:16 | -33.77988 | -62.66854 | 25024 ft | 308 kts | 101° |
| 2026-04-24 21:17 | -33.78371 | -62.64321 | 25026 ft | 308 kts | 101° |
| 2026-04-24 21:17 | -33.78753 | -62.61789 | 25026 ft | 308 kts | 101° |
| 2026-04-24 21:17 | -33.79136 | -62.59245 | 25026 ft | 308 kts | 101° |
| 2026-04-24 21:17 | -33.79518 | -62.56705 | 25024 ft | 308 kts | 101° |
| 2026-04-24 21:18 | -33.79898 | -62.54171 | 25025 ft | 308 kts | 101° |
| 2026-04-24 21:18 | -33.80273 | -62.51667 | 25024 ft | 308 kts | 101° |
| 2026-04-24 21:18 | -33.80653 | -62.49133 | 25021 ft | 308 kts | 101° |
| 2026-04-24 21:18 | -33.81033 | -62.46591 | 25025 ft | 308 kts | 101° |
| 2026-04-24 21:19 | -33.81411 | -62.44055 | 25026 ft | 308 kts | 101° |
| 2026-04-24 21:19 | -33.81789 | -62.41518 | 25026 ft | 308 kts | 101° |
| 2026-04-24 21:19 | -33.82167 | -62.38980 | 25026 ft | 308 kts | 101° |
| 2026-04-24 21:19 | -33.82545 | -62.36434 | 25025 ft | 308 kts | 101° |
| 2026-04-24 21:20 | -33.83297 | -62.31360 | 25029 ft | 308 kts | 101° |
| 2026-04-24 21:20 | -33.83668 | -62.28855 | 25029 ft | 308 kts | 101° |
| 2026-04-24 21:20 | -33.84042 | -62.26320 | 25029 ft | 308 kts | 101° |
| 2026-04-24 21:21 | -33.84416 | -62.23782 | 25028 ft | 308 kts | 101° |
| 2026-04-24 21:21 | -33.84790 | -62.21248 | 25029 ft | 308 kts | 101° |
| 2026-04-24 21:21 | -33.85164 | -62.18707 | 25028 ft | 308 kts | 101° |
| 2026-04-24 21:21 | -33.85536 | -62.16169 | 25030 ft | 308 kts | 101° |
| 2026-04-24 21:22 | -33.85908 | -62.13631 | 25029 ft | 308 kts | 101° |
| 2026-04-24 21:22 | -33.86280 | -62.11095 | 25030 ft | 308 kts | 101° |
| 2026-04-24 21:22 | -33.86651 | -62.08556 | 25030 ft | 308 kts | 101° |
| 2026-04-24 21:22 | -33.87022 | -62.06012 | 25032 ft | 308 kts | 101° |
| 2026-04-24 21:23 | -33.87392 | -62.03474 | 25030 ft | 308 kts | 101° |
| 2026-04-24 21:23 | -33.87762 | -62.00932 | 25031 ft | 308 kts | 101° |
| 2026-04-24 21:23 | -33.88126 | -61.98422 | 25031 ft | 308 kts | 101° |
| 2026-04-24 21:23 | -33.88495 | -61.95885 | 25034 ft | 308 kts | 101° |
| 2026-04-24 21:24 | -33.88863 | -61.93344 | 25032 ft | 308 kts | 101° |
| 2026-04-24 21:24 | -33.89230 | -61.90803 | 25033 ft | 308 kts | 101° |
| 2026-04-24 21:24 | -33.89598 | -61.88260 | 25034 ft | 308 kts | 101° |
| 2026-04-24 21:24 | -33.89963 | -61.85729 | 25036 ft | 308 kts | 101° |
| 2026-04-24 21:25 | -33.90329 | -61.83186 | 25030 ft | 308 kts | 101° |
| 2026-04-24 21:25 | -33.90695 | -61.80643 | 25032 ft | 308 kts | 101° |
| 2026-04-24 21:25 | -33.91060 | -61.78100 | 25033 ft | 308 kts | 101° |
| 2026-04-24 21:25 | -33.91424 | -61.75558 | 25035 ft | 308 kts | 101° |
| 2026-04-24 21:26 | -33.91787 | -61.73021 | 25031 ft | 308 kts | 101° |
| 2026-04-24 21:26 | -33.92150 | -61.70483 | 25033 ft | 308 kts | 101° |
| 2026-04-24 21:26 | -33.92512 | -61.67941 | 25031 ft | 308 kts | 101° |
| 2026-04-24 21:26 | -33.92967 | -61.65427 | 25032 ft | 307 kts | 108° |
| 2026-04-24 21:27 | -33.93630 | -61.62991 | 25033 ft | 306 kts | 111° |
| 2026-04-24 21:27 | -33.94259 | -61.60572 | 25032 ft | 307 kts | 108° |
| 2026-04-24 21:27 | -33.94812 | -61.58090 | 25031 ft | 307 kts | 107° |
| 2026-04-24 21:27 | -33.95372 | -61.55577 | 25030 ft | 307 kts | 108° |
| 2026-04-24 21:28 | -33.95947 | -61.53137 | 25033 ft | 307 kts | 108° |
| 2026-04-24 21:28 | -33.96532 | -61.50668 | 25029 ft | 307 kts | 108° |
| 2026-04-24 21:28 | -33.97106 | -61.48192 | 25033 ft | 307 kts | 108° |
| 2026-04-24 21:28 | -33.97678 | -61.45716 | 25033 ft | 307 kts | 108° |
| 2026-04-24 21:29 | -33.98252 | -61.43239 | 25032 ft | 307 kts | 108° |
| 2026-04-24 21:29 | -33.98827 | -61.40766 | 25031 ft | 307 kts | 108° |
| 2026-04-24 21:29 | -33.99401 | -61.38286 | 25032 ft | 307 kts | 108° |
| 2026-04-24 21:29 | -33.99974 | -61.35807 | 25028 ft | 307 kts | 108° |
| 2026-04-24 21:30 | -34.00547 | -61.33331 | 25035 ft | 307 kts | 108° |
| 2026-04-24 21:30 | -34.01119 | -61.30850 | 25032 ft | 307 kts | 108° |
| 2026-04-24 21:30 | -34.01690 | -61.28375 | 25034 ft | 307 kts | 108° |
| 2026-04-24 21:30 | -34.02261 | -61.25897 | 25028 ft | 307 kts | 108° |
| 2026-04-24 21:31 | -34.02833 | -61.23412 | 25031 ft | 307 kts | 108° |
| 2026-04-24 21:31 | -34.03396 | -61.20964 | 25032 ft | 307 kts | 108° |
| 2026-04-24 21:31 | -34.03966 | -61.18484 | 25032 ft | 307 kts | 108° |
| 2026-04-24 21:31 | -34.04536 | -61.16001 | 25033 ft | 307 kts | 108° |
| 2026-04-24 21:32 | -34.05104 | -61.13521 | 25029 ft | 307 kts | 108° |
| 2026-04-24 21:32 | -34.05672 | -61.11042 | 25031 ft | 307 kts | 108° |
| 2026-04-24 21:32 | -34.06240 | -61.08562 | 25032 ft | 307 kts | 108° |
| 2026-04-24 21:32 | -34.06806 | -61.06084 | 25019 ft | 307 kts | 108° |
| 2026-04-24 21:33 | -34.07376 | -61.03589 | 24904 ft | 309 kts | 107° |
| 2026-04-24 21:33 | -34.07754 | -61.01930 | 24764 ft | 310 kts | 107° |
| 2026-04-24 21:33 | -34.08524 | -60.98554 | 24502 ft | 313 kts | 107° |
| 2026-04-24 21:33 | -34.09103 | -60.96009 | 24311 ft | 315 kts | 107° |
| 2026-04-24 21:34 | -34.09684 | -60.93453 | 24126 ft | 317 kts | 107° |
| 2026-04-24 21:34 | -34.10267 | -60.90886 | 23955 ft | 318 kts | 107° |
| 2026-04-24 21:34 | -34.10852 | -60.88311 | 23773 ft | 319 kts | 107° |
| 2026-04-24 21:34 | -34.11438 | -60.85722 | 23598 ft | 320 kts | 107° |
| 2026-04-24 21:35 | -34.12020 | -60.83152 | 23397 ft | 321 kts | 107° |
| 2026-04-24 21:35 | -34.12607 | -60.80557 | 23200 ft | 322 kts | 107° |
| 2026-04-24 21:35 | -34.13199 | -60.77936 | 23010 ft | 323 kts | 107° |
| 2026-04-24 21:35 | -34.13791 | -60.75315 | 22820 ft | 324 kts | 107° |
| 2026-04-24 21:36 | -34.14384 | -60.72684 | 22639 ft | 325 kts | 107° |
| 2026-04-24 21:36 | -34.14979 | -60.70043 | 22461 ft | 326 kts | 106° |
| 2026-04-24 21:36 | -34.15575 | -60.67395 | 22287 ft | 327 kts | 107° |
| 2026-04-24 21:36 | -34.16172 | -60.64738 | 22087 ft | 328 kts | 106° |
| 2026-04-24 21:37 | -34.16770 | -60.62074 | 21860 ft | 330 kts | 106° |
| 2026-04-24 21:37 | -34.17370 | -60.59396 | 21636 ft | 331 kts | 106° |
| 2026-04-24 21:37 | -34.17972 | -60.56710 | 21418 ft | 332 kts | 106° |
| 2026-04-24 21:37 | -34.18575 | -60.54012 | 21198 ft | 332 kts | 106° |
| 2026-04-24 21:38 | -34.19178 | -60.51318 | 20989 ft | 332 kts | 106° |
| 2026-04-24 21:38 | -34.19780 | -60.48618 | 20782 ft | 333 kts | 106° |
| 2026-04-24 21:38 | -34.20382 | -60.45919 | 20540 ft | 334 kts | 106° |
| 2026-04-24 21:38 | -34.20988 | -60.43199 | 20278 ft | 336 kts | 106° |
| 2026-04-24 21:39 | -34.21588 | -60.40503 | 20023 ft | 336 kts | 105° |
| 2026-04-24 21:39 | -34.22193 | -60.37780 | 19774 ft | 332 kts | 105° |
| 2026-04-24 21:39 | -34.22782 | -60.35122 | 19518 ft | 323 kts | 105° |
| 2026-04-24 21:39 | -34.23356 | -60.32536 | 19265 ft | 316 kts | 105° |
| 2026-04-24 21:40 | -34.23919 | -60.29996 | 19008 ft | 310 kts | 105° |
| 2026-04-24 21:40 | -34.24472 | -60.27496 | 18750 ft | 306 kts | 105° |
| 2026-04-24 21:40 | -34.25017 | -60.25030 | 18492 ft | 302 kts | 105° |
| 2026-04-24 21:40 | -34.25555 | -60.22591 | 18225 ft | 298 kts | 105° |
| 2026-04-24 21:41 | -34.26087 | -60.20178 | 17936 ft | 295 kts | 105° |
| 2026-04-24 21:41 | -34.26613 | -60.17792 | 17653 ft | 293 kts | 105° |
| 2026-04-24 21:41 | -34.27135 | -60.15421 | 17369 ft | 290 kts | 105° |
| 2026-04-24 21:41 | -34.27651 | -60.13074 | 17088 ft | 288 kts | 105° |
| 2026-04-24 21:42 | -34.28164 | -60.10743 | 16812 ft | 285 kts | 105° |
| 2026-04-24 21:42 | -34.28670 | -60.08433 | 16543 ft | 283 kts | 105° |
| 2026-04-24 21:42 | -34.29174 | -60.06136 | 16265 ft | 281 kts | 105° |
| 2026-04-24 21:42 | -34.29673 | -60.03859 | 15991 ft | 279 kts | 105° |
| 2026-04-24 21:43 | -34.30168 | -60.01596 | 15731 ft | 277 kts | 105° |
| 2026-04-24 21:43 | -34.30659 | -59.99352 | 15478 ft | 275 kts | 105° |
| 2026-04-24 21:43 | -34.31146 | -59.97121 | 15217 ft | 273 kts | 105° |
| 2026-04-24 21:43 | -34.31629 | -59.94905 | 14967 ft | 271 kts | 105° |
| 2026-04-24 21:44 | -34.32109 | -59.92706 | 14706 ft | 269 kts | 105° |
| 2026-04-24 21:44 | -34.32578 | -59.90552 | 14471 ft | 267 kts | 105° |
| 2026-04-24 21:44 | -34.33050 | -59.88382 | 14225 ft | 266 kts | 105° |
| 2026-04-24 21:44 | -34.33518 | -59.86230 | 13980 ft | 264 kts | 105° |
| 2026-04-24 21:45 | -34.33983 | -59.84090 | 13727 ft | 262 kts | 105° |
| 2026-04-24 21:45 | -34.34444 | -59.81967 | 13461 ft | 260 kts | 105° |
| 2026-04-24 21:45 | -34.34902 | -59.79852 | 13189 ft | 259 kts | 105° |
| 2026-04-24 21:45 | -34.35357 | -59.77752 | 12931 ft | 258 kts | 105° |
| 2026-04-24 21:46 | -34.35812 | -59.75652 | 12672 ft | 256 kts | 105° |
| 2026-04-24 21:46 | -34.36262 | -59.73569 | 12415 ft | 255 kts | 105° |
| 2026-04-24 21:46 | -34.36710 | -59.71496 | 12157 ft | 254 kts | 105° |
| 2026-04-24 21:46 | -34.37155 | -59.69433 | 11912 ft | 253 kts | 105° |
| 2026-04-24 21:47 | -34.37599 | -59.67374 | 11663 ft | 252 kts | 105° |
| 2026-04-24 21:47 | -34.37892 | -59.66016 | 11502 ft | 251 kts | 105° |
| 2026-04-24 21:47 | -34.38480 | -59.63285 | 11176 ft | 250 kts | 105° |
| 2026-04-24 21:47 | -34.38770 | -59.61936 | 11020 ft | 249 kts | 105° |
| 2026-04-24 21:48 | -34.39206 | -59.59911 | 10781 ft | 248 kts | 105° |
| 2026-04-24 21:48 | -34.39638 | -59.57896 | 10544 ft | 247 kts | 105° |
| 2026-04-24 21:48 | -34.40070 | -59.55887 | 10337 ft | 245 kts | 105° |
| 2026-04-24 21:48 | -34.40495 | -59.53902 | 10148 ft | 242 kts | 105° |
| 2026-04-24 21:49 | -34.40917 | -59.51933 | 9962 ft | 240 kts | 105° |
| 2026-04-24 21:49 | -34.41335 | -59.49980 | 9759 ft | 239 kts | 105° |
| 2026-04-24 21:49 | -34.41751 | -59.48038 | 9554 ft | 237 kts | 105° |
| 2026-04-24 21:49 | -34.42163 | -59.46107 | 9348 ft | 236 kts | 105° |
| 2026-04-24 21:50 | -34.42573 | -59.44187 | 9143 ft | 235 kts | 105° |
| 2026-04-24 21:50 | -34.42981 | -59.42276 | 8942 ft | 234 kts | 105° |
| 2026-04-24 21:50 | -34.43386 | -59.40373 | 8740 ft | 233 kts | 105° |
| 2026-04-24 21:50 | -34.43785 | -59.38502 | 8553 ft | 232 kts | 105° |
| 2026-04-24 21:51 | -34.44188 | -59.36609 | 8353 ft | 231 kts | 105° |
| 2026-04-24 21:51 | -34.44587 | -59.34731 | 8164 ft | 230 kts | 104° |
| 2026-04-24 21:51 | -34.44985 | -59.32861 | 7972 ft | 229 kts | 104° |
| 2026-04-24 21:51 | -34.45380 | -59.30999 | 7779 ft | 228 kts | 104° |
| 2026-04-24 21:52 | -34.45773 | -59.29146 | 7589 ft | 227 kts | 104° |
| 2026-04-24 21:52 | -34.46165 | -59.27298 | 7404 ft | 226 kts | 104° |
| 2026-04-24 21:52 | -34.46554 | -59.25457 | 7219 ft | 225 kts | 104° |
| 2026-04-24 21:52 | -34.46942 | -59.23624 | 7036 ft | 224 kts | 104° |
| 2026-04-24 21:53 | -34.47328 | -59.21798 | 6856 ft | 223 kts | 104° |
| 2026-04-24 21:53 | -34.47713 | -59.19979 | 6676 ft | 223 kts | 103° |
| 2026-04-24 21:53 | -34.48096 | -59.18162 | 6496 ft | 222 kts | 103° |
| 2026-04-24 21:53 | -34.48479 | -59.16349 | 6307 ft | 222 kts | 103° |
| 2026-04-24 21:54 | -34.48860 | -59.14542 | 6121 ft | 221 kts | 103° |
| 2026-04-24 21:54 | -34.49239 | -59.12740 | 5939 ft | 220 kts | 103° |
| 2026-04-24 21:54 | -34.49616 | -59.10948 | 5754 ft | 219 kts | 103° |
| 2026-04-24 21:54 | -34.49992 | -59.09162 | 5572 ft | 218 kts | 103° |
| 2026-04-24 21:55 | -34.50360 | -59.07411 | 5391 ft | 217 kts | 103° |
| 2026-04-24 21:55 | -34.50731 | -59.05641 | 5212 ft | 216 kts | 103° |
| 2026-04-24 21:55 | -34.51100 | -59.03884 | 5026 ft | 215 kts | 103° |
| 2026-04-24 21:55 | -34.51468 | -59.02129 | 4850 ft | 214 kts | 102° |
| 2026-04-24 21:56 | -34.51834 | -59.00382 | 4659 ft | 213 kts | 102° |
| 2026-04-24 21:56 | -34.52197 | -58.98649 | 4477 ft | 212 kts | 102° |
| 2026-04-24 21:56 | -34.52558 | -58.96920 | 4289 ft | 211 kts | 102° |
| 2026-04-24 21:56 | -34.52918 | -58.95200 | 4111 ft | 210 kts | 102° |
| 2026-04-24 21:57 | -34.53275 | -58.93490 | 3926 ft | 209 kts | 102° |
| 2026-04-24 21:57 | -34.53632 | -58.91782 | 3753 ft | 208 kts | 102° |
| 2026-04-24 21:57 | -34.53984 | -58.90088 | 3563 ft | 207 kts | 102° |
| 2026-04-24 21:57 | -34.54332 | -58.88422 | 3386 ft | 206 kts | 101° |
| 2026-04-24 21:58 | -34.54682 | -58.86741 | 3208 ft | 204 kts | 101° |
| 2026-04-24 21:58 | -34.55024 | -58.85098 | 3024 ft | 198 kts | 102° |
| 2026-04-24 21:58 | -34.55352 | -58.83524 | 2993 ft | 187 kts | 101° |
| 2026-04-24 21:58 | -34.55662 | -58.82027 | 2986 ft | 179 kts | 100° |
| 2026-04-24 21:59 | -34.55951 | -58.80583 | 2986 ft | 174 kts | 103° |
| 2026-04-24 21:59 | -34.56243 | -58.79174 | 2930 ft | 172 kts | 96° |
| 2026-04-24 21:59 | -34.56387 | -58.77736 | 2842 ft | 172 kts | 93° |
| 2026-04-24 21:59 | -34.56473 | -58.76290 | 2757 ft | 171 kts | 89° |
| 2026-04-24 22:00 | -34.56504 | -58.74844 | 2664 ft | 172 kts | 88° |
| 2026-04-24 22:00 | -34.56533 | -58.73387 | 2550 ft | 173 kts | 87° |
| 2026-04-24 22:00 | -34.56210 | -58.72046 | 2502 ft | 164 kts | 55° |
| 2026-04-24 22:00 | -34.55492 | -58.71008 | 2501 ft | 158 kts | 45° |
| 2026-04-24 22:01 | -34.54728 | -58.70039 | 2399 ft | 162 kts | 43° |
| 2026-04-24 22:01 | -34.53914 | -58.69049 | 2187 ft | 168 kts | 43° |
| 2026-04-24 22:01 | -34.53144 | -58.68141 | 1979 ft | 143 kts | 41° |
| 2026-04-24 22:01 | -34.52455 | -58.67332 | 1791 ft | 135 kts | 42° |
| 2026-04-24 22:02 | -34.51820 | -58.66583 | 1629 ft | 121 kts | 42° |
| 2026-04-24 22:02 | -34.51236 | -58.65894 | 1460 ft | 114 kts | 42° |
| 2026-04-24 22:02 | -34.50676 | -58.65235 | 1321 ft | 111 kts | 42° |
| 2026-04-24 22:02 | -34.50115 | -58.64575 | 1158 ft | 113 kts | 43° |
| 2026-04-24 22:03 | -34.49556 | -58.63916 | 1014 ft | 111 kts | 42° |
| 2026-04-24 22:03 | -34.49001 | -58.63260 | 875 ft | 112 kts | 44° |
| 2026-04-24 22:03 | -34.48441 | -58.62596 | 729 ft | 113 kts | 45° |
| 2026-04-24 22:03 | -34.47875 | -58.61928 | 584 ft | 114 kts | 45° |
| 2026-04-24 22:04 | -34.47305 | -58.61257 | 429 ft | 115 kts | 45° |
| 2026-04-24 22:04 | -34.46727 | -58.60584 | 283 ft | 116 kts | 45° |
| 2026-04-24 22:04 | -34.46144 | -58.59903 | 116 ft | 114 kts | 44° |
| 2026-04-24 22:04 | -34.45624 | -58.59286 | 22 ft | 89 kts | 44° |
| 2026-04-24 22:05 | -34.45261 | -58.58855 | 21 ft | 61 kts | 44° |
| 2026-04-24 22:05 | -34.45016 | -58.58571 | 21 ft | 36 kts | 43° |
| 2026-04-24 22:05 | -34.44863 | -58.58391 | 21 ft | 18 kts | 46° |
| 2026-04-24 22:05 | -34.44885 | -58.58295 | 21 ft | 11 kts | 140° |
| 2026-04-24 22:06 | -34.44943 | -58.58247 | 21 ft | 11 kts | 151° |
| 2026-04-24 22:06 | -34.45027 | -58.58190 | 21 ft | 17 kts | 150° |
| 2026-04-24 22:06 | -34.45140 | -58.58108 | 21 ft | 21 kts | 148° |
| 2026-04-24 22:06 | -34.45279 | -58.58007 | 21 ft | 25 kts | 149° |
| 2026-04-24 22:07 | -34.45357 | -58.58038 | 21 ft | 17 kts | 244° |
| 2026-04-24 22:07 | -34.45422 | -58.58188 | 21 ft | 23 kts | 242° |
| 2026-04-24 22:07 | -34.45502 | -58.58376 | 21 ft | 16 kts | 242° |
| 2026-04-24 22:07 | -34.45525 | -58.58411 | 21 ft | 8 kts | 186° |
| 2026-04-24 22:08 | -34.45564 | -58.58405 | 21 ft | 0 kts | 204° |
| 2026-04-24 22:08 | -34.45563 | -58.58405 | 21 ft | 0 kts | 204° |